Time;durP1;ratioP1;P1;durP2;ratioP2;P2;SDS_P1;SDS_P2;PMS_P1;PMS_P2;Temp;Humidity;BMP_temperature;BMP_pressure;BME280_temperature;BME280_humidity;BME280_pressure;Samples;Min_cycle;Max_cycle;Signal;HPM_P1;HPM_P2
2022/02/02 00:00:28;;;;;;;1.30;1.23;;;3.40;99.90;;;;;;5021007;28;20021;-80
2022/02/02 00:02:58;;;;;;;1.45;0.88;;;3.30;99.90;;;;;;5036229;28;20029;-79
2022/02/02 00:05:31;;;;;;;1.92;0.90;;;3.30;99.90;;;;;;5032684;28;20022;-79
2022/02/02 00:08:03;;;;;;;0.82;0.75;;;3.30;99.90;;;;;;5049904;28;20031;-79
2022/02/02 00:13:09;;;;;;;3.40;0.97;;;3.40;99.90;;;;;;5038977;28;20036;-79
2022/02/02 00:18:56;;;;;;;2.67;0.82;;;3.50;99.90;;;;;;5036946;28;20236;-79
2022/02/02 00:21:38;;;;;;;1.00;0.85;;;3.60;99.90;;;;;;5039339;28;20037;-80
2022/02/02 00:24:12;;;;;;;0.80;0.80;;;3.60;99.90;;;;;;5039950;28;20112;-80
2022/02/02 00:26:42;;;;;;;1.20;0.85;;;3.60;99.90;;;;;;5056108;28;20033;-79
2022/02/02 00:29:14;;;;;;;0.88;0.70;;;3.60;99.90;;;;;;5039708;28;20029;-79
2022/02/02 00:31:49;;;;;;;1.60;0.73;;;3.80;99.90;;;;;;5039093;28;20025;-79
2022/02/02 00:34:20;;;;;;;0.80;0.80;;;3.80;99.90;;;;;;5039004;28;20087;-80
2022/02/02 00:36:57;;;;;;;0.80;0.80;;;3.80;99.90;;;;;;5032920;28;20049;-80
2022/02/02 00:39:28;;;;;;;1.70;0.75;;;3.80;99.90;;;;;;5038232;28;20025;-79
2022/02/02 00:41:56;;;;;;;1.13;0.77;;;3.90;99.90;;;;;;5040386;28;20013;-80
2022/02/02 00:44:23;;;;;;;2.92;0.80;;;3.90;99.90;;;;;;5039892;28;20022;-79
2022/02/02 00:46:49;;;;;;;1.45;0.82;;;4.00;99.90;;;;;;5039637;28;20025;-80
2022/02/02 00:49:15;;;;;;;0.98;0.80;;;4.10;99.90;;;;;;5042123;28;20501;-80
2022/02/02 00:51:45;;;;;;;2.22;1.00;;;4.00;99.90;;;;;;5041103;28;20045;-79
2022/02/02 00:54:13;;;;;;;2.35;1.33;;;4.00;99.90;;;;;;5042923;28;20033;-79
2022/02/02 00:56:39;;;;;;;2.28;0.93;;;4.00;99.90;;;;;;5041846;28;20040;-79
2022/02/02 00:59:05;;;;;;;5.38;1.20;;;3.90;99.90;;;;;;5040255;28;20057;-79
2022/02/02 01:01:31;;;;;;;8.27;1.50;;;3.80;99.90;;;;;;5041354;28;20048;-80
2022/02/02 01:03:57;;;;;;;4.45;1.60;;;3.60;99.90;;;;;;5039497;28;20025;-80
2022/02/02 01:06:24;;;;;;;1.73;1.48;;;3.50;99.90;;;;;;5029746;28;20022;-79
2022/02/02 01:29:47;;;;;;;2.63;1.55;;;3.60;99.90;;;;;;5023533;28;20029;-80
2022/02/02 01:32:12;;;;;;;3.08;1.20;;;3.70;99.90;;;;;;5024120;28;20029;-80
2022/02/02 01:34:38;;;;;;;2.70;0.98;;;3.70;99.90;;;;;;5027966;28;20450;-80
2022/02/02 01:37:04;;;;;;;0.80;0.60;;;3.70;99.90;;;;;;5044746;28;20036;-80
2022/02/02 01:39:31;;;;;;;0.93;0.80;;;3.80;99.90;;;;;;5045345;28;20022;-79
2022/02/02 01:41:59;;;;;;;1.15;0.65;;;3.80;99.90;;;;;;5046589;28;20026;-80
2022/02/02 01:44:48;;;;;;;1.98;0.90;;;3.90;99.90;;;;;;5067199;28;20035;-79
2022/02/02 01:47:14;;;;;;;0.60;0.60;;;3.80;99.90;;;;;;5050720;28;20021;-79
2022/02/02 01:50:12;;;;;;;1.75;0.60;;;3.80;99.90;;;;;;5059044;28;20022;-80
2022/02/02 01:55:16;;;;;;;0.73;0.53;;;3.70;99.90;;;;;;5044099;28;20458;-79
2022/02/02 02:00:14;;;;;;;0.95;0.85;;;3.70;99.90;;;;;;5042465;28;20036;-80
2022/02/02 02:02:40;;;;;;;0.60;0.60;;;3.70;99.90;;;;;;5042299;28;20536;-79
2022/02/02 02:05:06;;;;;;;2.10;0.60;;;3.60;99.90;;;;;;5032604;28;20101;-80
2022/02/02 02:07:32;;;;;;;1.05;0.65;;;3.60;99.90;;;;;;5029789;28;20034;-80
2022/02/02 02:09:59;;;;;;;1.23;0.80;;;3.50;99.90;;;;;;5036688;28;20033;-81
2022/02/02 02:12:38;;;;;;;0.65;0.65;;;3.60;99.90;;;;;;5023062;28;20052;-80
2022/02/02 02:15:07;;;;;;;0.70;0.70;;;3.60;99.90;;;;;;5021776;28;20412;-80
2022/02/02 02:17:32;;;;;;;1.30;0.68;;;3.60;99.90;;;;;;5020571;28;20022;-80
2022/02/02 02:19:58;;;;;;;0.68;0.65;;;3.60;99.90;;;;;;5020818;28;20018;-79
2022/02/02 02:22:29;;;;;;;0.70;0.70;;;3.60;99.90;;;;;;5024466;28;20018;-79
2022/02/02 02:24:55;;;;;;;1.40;0.70;;;3.70;99.90;;;;;;5026308;28;20045;-80
2022/02/02 02:27:23;;;;;;;1.83;0.95;;;3.70;99.90;;;;;;5024596;28;20052;-79
2022/02/02 02:40:03;;;;;;;3.03;1.15;;;3.80;99.90;;;;;;5026975;28;20022;-79
2022/02/02 02:56:16;;;;;;;3.13;1.35;;;4.00;99.90;;;;;;5037381;22;20052;-80
2022/02/02 03:02:16;;;;;;;1.30;1.20;;;4.10;99.90;;;;;;5019850;28;20021;-80
2022/02/02 04:01:49;;;;;;;2.97;1.40;;;4.20;99.90;;;;;;5035756;28;20140;-79
2022/02/02 04:07:04;;;;;;;2.80;0.90;;;4.30;99.90;;;;;;5016896;28;20564;-79
2022/02/02 04:09:26;;;;;;;7.13;1.60;;;4.30;99.90;;;;;;5017380;28;20037;-80
2022/02/02 04:51:25;;;;;;;5.60;1.42;;;4.40;99.90;;;;;;5040281;28;20045;-80
2022/02/02 04:55:42;;;;;;;5.45;0.95;;;4.30;99.90;;;;;;5036875;28;20101;-81
2022/02/02 05:16:26;;;;;;;5.80;1.05;;;4.40;99.90;;;;;;5016186;28;20041;-82
2022/02/02 05:43:20;;;;;;;4.57;0.95;;;4.50;99.90;;;;;;5016382;28;20040;-80
2022/02/02 05:53:47;;;;;;;2.03;0.50;;;4.50;99.90;;;;;;5015995;28;20026;-79
2022/02/02 05:56:13;;;;;;;7.85;1.23;;;4.50;99.90;;;;;;5015554;28;20026;-78
2022/02/02 05:58:39;;;;;;;3.33;0.75;;;4.50;99.90;;;;;;5013328;28;20467;-80
2022/02/02 06:01:10;;;;;;;2.50;0.95;;;4.60;99.90;;;;;;5013728;28;20022;-79
2022/02/02 06:03:45;;;;;;;5.80;1.73;;;4.50;99.90;;;;;;5013206;28;20033;-79
2022/02/02 06:06:11;;;;;;;1.88;1.52;;;4.60;99.90;;;;;;5026782;28;20367;-79
2022/02/02 06:08:45;;;;;;;7.78;1.35;;;4.60;99.90;;;;;;5018396;28;20027;-79
2022/02/02 06:11:13;;;;;;;3.20;1.10;;;4.60;99.90;;;;;;5027664;28;20030;-78
2022/02/02 06:13:44;;;;;;;3.30;1.35;;;4.60;99.90;;;;;;5041545;28;20025;-79
2022/02/02 06:16:10;;;;;;;2.22;1.30;;;4.60;99.90;;;;;;5018532;28;20029;-79
2022/02/02 06:18:37;;;;;;;1.98;1.02;;;4.60;99.90;;;;;;5017594;28;20030;-78
2022/02/02 06:21:07;;;;;;;2.33;1.58;;;4.60;99.90;;;;;;5015722;28;20086;-77
2022/02/02 06:23:45;;;;;;;8.68;1.58;;;4.60;99.90;;;;;;5044405;28;20010;-84
2022/02/02 06:26:14;;;;;;;5.10;1.60;;;4.60;99.90;;;;;;5033758;28;20102;-80
2022/02/02 06:28:44;;;;;;;5.95;2.10;;;4.60;99.90;;;;;;5015933;28;20386;-77
2022/02/02 06:31:13;;;;;;;7.50;2.17;;;4.60;99.90;;;;;;5016350;28;20026;-77
2022/02/02 06:33:39;;;;;;;8.35;2.92;;;4.70;99.90;;;;;;5018026;28;20030;-76
2022/02/02 06:36:09;;;;;;;10.77;2.80;;;4.70;99.90;;;;;;5018544;28;20376;-81
2022/02/02 06:38:38;;;;;;;5.57;2.08;;;4.70;99.90;;;;;;5030990;28;20030;-77
2022/02/02 06:41:05;;;;;;;6.15;1.85;;;4.60;99.90;;;;;;5034814;28;20105;-80
2022/02/02 06:43:31;;;;;;;5.05;1.35;;;4.20;99.90;;;;;;5044429;28;20029;-77
2022/02/02 06:45:59;;;;;;;6.03;1.75;;;4.00;99.90;;;;;;5038476;28;20028;-78
2022/02/02 06:48:27;;;;;;;4.22;1.67;;;3.70;99.90;;;;;;5037264;28;20113;-81
2022/02/02 06:51:10;;;;;;;3.88;1.25;;;3.50;99.90;;;;;;5039173;28;20022;-78
2022/02/02 06:53:57;;;;;;;4.65;1.20;;;3.50;99.90;;;;;;5039937;28;20053;-80
2022/02/02 06:56:42;;;;;;;8.43;2.78;;;3.40;99.90;;;;;;5049399;28;20030;-83
2022/02/02 06:59:47;;;;;;;6.28;2.50;;;3.40;99.90;;;;;;5052334;28;20026;-81
2022/02/02 07:05:20;;;;;;;13.65;3.33;;;3.40;99.90;;;;;;5022615;28;20093;-78
2022/02/02 07:26:46;;;;;;;16.05;2.95;;;4.00;99.90;;;;;;5019104;28;20061;-80
2022/02/02 07:29:24;;;;;;;17.30;2.70;;;4.10;99.90;;;;;;5017822;28;20041;-79
2022/02/02 07:34:57;;;;;;;16.70;2.40;;;4.10;99.90;;;;;;4999331;28;20065;-79
2022/02/02 07:37:37;;;;;;;19.52;2.72;;;4.10;99.90;;;;;;4999872;28;20030;-80
2022/02/02 07:40:06;;;;;;;14.00;2.20;;;4.20;99.90;;;;;;5014061;28;20096;-78
2022/02/02 07:42:33;;;;;;;13.73;2.25;;;4.20;99.90;;;;;;5026528;28;20029;-78
2022/02/02 07:45:21;;;;;;;11.73;2.40;;;4.20;99.90;;;;;;5018262;28;20014;-79
2022/02/02 07:48:04;;;;;;;10.02;2.50;;;4.20;99.90;;;;;;5016224;28;20056;-79
2022/02/02 07:50:34;;;;;;;16.60;2.53;;;4.20;99.90;;;;;;5028022;28;20120;-78
2022/02/02 07:53:07;;;;;;;6.13;1.65;;;4.30;99.90;;;;;;5042713;28;20460;-78
2022/02/02 07:55:35;;;;;;;5.68;2.13;;;4.30;99.90;;;;;;5040587;28;20075;-78
2022/02/02 07:58:01;;;;;;;8.65;1.67;;;4.30;99.90;;;;;;5041751;28;20057;-78
2022/02/02 08:00:29;;;;;;;10.55;2.15;;;4.30;99.90;;;;;;5039027;28;20550;-78
2022/02/02 08:05:24;;;;;;;8.80;2.20;;;4.30;99.90;;;;;;5033748;28;20022;-82
2022/02/02 08:08:08;;;;;;;9.52;2.10;;;4.30;99.90;;;;;;5032092;28;20029;-82
2022/02/02 08:10:36;;;;;;;9.13;2.40;;;4.30;99.90;;;;;;5034876;28;20012;-82
2022/02/02 08:13:10;;;;;;;10.40;2.25;;;4.40;99.90;;;;;;5039687;28;20022;-83
2022/02/02 08:15:36;;;;;;;9.75;2.20;;;4.40;99.90;;;;;;5027556;28;20024;-82
2022/02/02 08:18:02;;;;;;;17.73;2.65;;;4.50;99.90;;;;;;5025125;28;20042;-82
2022/02/02 08:20:28;;;;;;;12.68;2.92;;;4.50;99.90;;;;;;5027886;28;20029;-83
2022/02/02 08:22:54;;;;;;;11.57;2.70;;;4.50;99.90;;;;;;5043605;28;20074;-82
2022/02/02 08:25:27;;;;;;;22.70;5.25;;;4.60;99.90;;;;;;5043176;28;20064;-82
2022/02/02 08:27:57;;;;;;;13.93;2.72;;;4.60;99.90;;;;;;5042560;28;20108;-82
2022/02/02 08:30:24;;;;;;;14.13;2.50;;;4.70;99.90;;;;;;5041176;28;20510;-81
2022/02/02 08:32:53;;;;;;;9.95;3.22;;;4.70;99.90;;;;;;5021183;28;20042;-82
2022/02/02 08:35:22;;;;;;;18.23;3.47;;;4.70;99.90;;;;;;5022662;28;20036;-83
2022/02/02 08:37:54;;;;;;;15.50;3.08;;;4.80;99.90;;;;;;5021605;28;20026;-86
2022/02/02 08:42:48;;;;;;;15.00;3.15;;;5.00;99.90;;;;;;5029676;28;19933;-82
2022/02/02 08:45:21;;;;;;;10.80;2.72;;;5.10;99.90;;;;;;5043610;28;20025;-82
2022/02/02 08:47:58;;;;;;;17.55;3.83;;;5.10;99.90;;;;;;5050865;28;20041;-83
2022/02/02 08:50:44;;;;;;;14.13;3.13;;;5.10;99.90;;;;;;5045814;28;20022;-84
2022/02/02 08:58:46;;;;;;;14.38;2.85;;;5.30;99.90;;;;;;5042640;28;20090;-80
2022/02/02 09:01:28;;;;;;;15.75;3.17;;;5.50;99.90;;;;;;5042594;28;20097;-80
2022/02/02 09:06:38;;;;;;;12.05;2.70;;;6.20;99.90;;;;;;5039376;28;20056;-80
2022/02/02 09:09:14;;;;;;;12.85;3.13;;;6.40;98.70;;;;;;5037605;28;20025;-79
2022/02/02 09:20:10;;;;;;;11.32;3.10;;;6.10;97.70;;;;;;5017460;28;20033;-79
2022/02/02 09:25:35;;;;;;;17.08;2.80;;;6.20;97.30;;;;;;5018563;28;20028;-79
2022/02/02 09:33:53;;;;;;;12.95;2.28;;;6.40;96.00;;;;;;5031211;28;20408;-78
2022/02/02 09:36:23;;;;;;;16.35;3.55;;;6.40;96.60;;;;;;5037002;28;20025;-81
2022/02/02 09:38:54;;;;;;;15.05;2.88;;;6.50;96.40;;;;;;5036165;28;20116;-81
2022/02/02 09:41:47;;;;;;;11.05;2.90;;;6.50;97.50;;;;;;5032046;28;20041;-81
2022/02/02 09:44:17;;;;;;;12.85;2.72;;;6.60;98.50;;;;;;5031838;28;20026;-81
2022/02/02 09:49:21;;;;;;;16.80;3.08;;;7.00;95.70;;;;;;5020889;28;20052;-81
2022/02/02 09:51:57;;;;;;;12.15;3.10;;;7.10;95.10;;;;;;5028104;28;20034;-78
2022/02/02 09:54:30;;;;;;;15.07;3.95;;;7.10;95.10;;;;;;5020076;28;20025;-79
2022/02/02 10:08:07;;;;;;;10.30;2.42;;;7.20;93.80;;;;;;5018401;28;20037;-82
2022/02/02 10:15:52;;;;;;;11.23;2.55;;;6.80;94.40;;;;;;5001362;28;20037;-82
2022/02/02 10:18:20;;;;;;;13.25;2.63;;;6.70;94.70;;;;;;5001829;28;20018;-81
2022/02/02 10:20:51;;;;;;;15.73;2.67;;;6.70;95.60;;;;;;5034255;28;20078;-80
2022/02/02 10:23:28;;;;;;;11.15;2.67;;;6.60;96.10;;;;;;5038983;28;20363;-81
2022/02/02 10:25:59;;;;;;;15.68;3.03;;;6.50;97.00;;;;;;5039317;28;20112;-80
2022/02/02 10:28:29;;;;;;;21.58;2.70;;;6.60;96.80;;;;;;5022763;28;20022;-79
2022/02/02 10:31:06;;;;;;;14.65;3.17;;;6.70;96.90;;;;;;5038072;28;20037;-81
2022/02/02 10:33:34;;;;;;;14.32;3.15;;;6.70;96.80;;;;;;5020120;28;20101;-80
2022/02/02 10:36:12;;;;;;;15.13;2.85;;;6.70;96.30;;;;;;5020244;28;20394;-81
2022/02/02 10:38:49;;;;;;;13.45;3.15;;;6.70;96.20;;;;;;5038684;28;20034;-80
2022/02/02 10:41:30;;;;;;;14.63;3.65;;;6.70;96.60;;;;;;5037757;28;20084;-81
2022/02/02 10:43:59;;;;;;;20.45;3.38;;;6.70;96.20;;;;;;5029641;28;20014;-81
2022/02/02 10:46:50;;;;;;;15.95;2.95;;;6.70;95.60;;;;;;5042668;28;20382;-82
2022/02/02 10:50:10;;;;;;;14.77;2.83;;;6.70;95.70;;;;;;5031196;28;20372;-81
2022/02/02 10:52:32;;;;;;;17.70;2.47;;;6.70;95.10;;;;;;5013663;28;20071;-82
2022/02/02 11:00:33;;;;;;;13.07;3.28;;;6.70;94.60;;;;;;5040690;28;20446;-82
2022/02/02 11:08:28;;;;;;;16.88;3.50;;;6.80;93.60;;;;;;4999831;28;20065;-80
2022/02/02 11:10:58;;;;;;;16.13;3.33;;;6.80;93.30;;;;;;5015074;28;20084;-81
2022/02/02 11:13:25;;;;;;;15.65;2.70;;;6.70;93.00;;;;;;5039576;28;20044;-80
2022/02/02 11:15:55;;;;;;;15.23;2.95;;;6.70;93.10;;;;;;5037966;28;20025;-79
2022/02/02 11:18:34;;;;;;;14.95;2.60;;;6.70;93.30;;;;;;5030262;28;20026;-82
2022/02/02 11:21:08;;;;;;;16.67;2.63;;;6.60;93.50;;;;;;5026779;28;20030;-83
2022/02/02 11:23:51;;;;;;;20.27;3.65;;;6.60;93.70;;;;;;5035019;28;20033;-81
2022/02/02 11:26:37;;;;;;;12.15;2.60;;;6.70;93.80;;;;;;5044460;28;20041;-82
2022/02/02 11:29:02;;;;;;;17.95;3.28;;;6.70;93.60;;;;;;5047545;28;20486;-82
2022/02/02 11:31:28;;;;;;;21.70;3.67;;;6.80;93.60;;;;;;5038436;28;20034;-83
2022/02/02 11:33:59;;;;;;;15.73;3.30;;;6.80;93.50;;;;;;5021708;28;20025;-81
2022/02/02 11:36:36;;;;;;;17.80;3.58;;;6.80;93.40;;;;;;5021538;28;20022;-81
2022/02/02 11:39:07;;;;;;;19.23;3.53;;;6.90;93.00;;;;;;5019624;28;20095;-82
2022/02/02 11:44:42;;;;;;;20.58;3.78;;;7.10;92.60;;;;;;5031189;28;20035;-83
2022/02/02 11:49:50;;;;;;;17.88;3.38;;;7.20;91.50;;;;;;5033190;28;20037;-81
2022/02/02 11:52:34;;;;;;;17.60;2.90;;;7.20;91.40;;;;;;5018051;28;20402;-80
2022/02/02 11:55:00;;;;;;;17.63;3.38;;;7.30;91.00;;;;;;5018129;28;20040;-81
2022/02/02 11:57:38;;;;;;;15.07;2.80;;;7.30;91.30;;;;;;5039863;28;20124;-81
2022/02/02 12:00:29;;;;;;;13.50;3.33;;;7.40;90.90;;;;;;5018923;28;20018;-81
2022/02/02 12:03:50;;;;;;;18.77;3.08;;;7.40;90.90;;;;;;5026797;28;20025;-86
2022/02/02 12:05:55;;;;;;;11.50;2.92;;;7.50;91.10;;;;;;5019414;28;20069;-88
2022/02/02 12:08:50;;;;;;;16.08;3.10;;;7.60;90.70;;;;;;5035469;28;20065;-86
2022/02/02 12:11:29;;;;;;;22.83;4.07;;;7.50;90.90;;;;;;5036038;28;20390;-86
2022/02/02 12:45:10;;;;;;;15.63;2.92;;;7.50;90.20;;;;;;5023718;28;20493;-84
2022/02/02 12:58:12;;;;;;;11.32;2.28;;;7.30;90.00;;;;;;5017111;28;20088;-86
2022/02/02 13:03:10;;;;;;;8.85;2.60;;;7.20;90.40;;;;;;5018741;28;20494;-85
2022/02/02 13:05:37;;;;;;;7.95;2.70;;;7.30;90.30;;;;;;5015171;28;20030;-79
2022/02/02 13:08:04;;;;;;;17.80;8.15;;;7.40;90.20;;;;;;5016513;28;20044;-80
2022/02/02 13:10:32;;;;;;;14.93;5.53;;;7.50;89.80;;;;;;5016733;28;20037;-79
2022/02/02 13:13:28;;;;;;;12.60;3.08;;;7.60;89.30;;;;;;5024979;28;20036;-79
2022/02/02 13:16:16;;;;;;;9.32;2.42;;;7.70;88.20;;;;;;5026685;28;20080;-79
2022/02/02 13:18:49;;;;;;;12.90;2.88;;;7.70;88.50;;;;;;5033479;28;20093;-80
2022/02/02 13:31:41;;;;;;;11.63;2.58;;;7.30;90.60;;;;;;5039440;28;20021;-79
2022/02/02 14:06:46;;;;;;;17.08;3.55;;;6.20;98.60;;;;;;5030283;28;20041;-82
2022/02/02 14:33:25;;;;;;;11.82;2.33;;;6.10;96.10;;;;;;5022745;28;20094;-82
2022/02/02 14:35:55;;;;;;;12.18;2.22;;;6.20;95.30;;;;;;5029674;28;20017;-81
2022/02/02 14:38:21;;;;;;;9.63;1.88;;;6.30;94.80;;;;;;5021682;28;20117;-83
2022/02/02 14:43:23;;;;;;;9.70;1.88;;;6.50;93.80;;;;;;5032013;28;20025;-83
2022/02/02 14:45:53;;;;;;;10.40;1.92;;;6.60;93.90;;;;;;5037644;28;20447;-81
2022/02/02 14:48:40;;;;;;;12.63;1.77;;;6.70;93.70;;;;;;5056860;28;20037;-81
2022/02/02 14:51:17;;;;;;;19.67;6.60;;;6.70;93.40;;;;;;5044578;28;20041;-82
2022/02/02 14:54:01;;;;;;;9.45;2.97;;;6.60;93.10;;;;;;5044378;28;20108;-81
2022/02/02 15:27:17;;;;;;;12.95;3.05;;;4.00;99.90;;;;;;5004756;28;20033;-82
2022/02/02 15:28:52;;;;;;;17.25;4.30;;;4.10;99.90;;;;;;5003864;28;20113;-80
2022/02/02 15:31:18;;;;;;;10.88;2.90;;;4.20;99.90;;;;;;5019194;28;20018;-79
2022/02/02 15:33:47;;;;;;;11.77;2.75;;;4.20;99.90;;;;;;5032560;28;20037;-81
2022/02/02 15:39:00;;;;;;;8.38;2.72;;;4.20;99.90;;;;;;5029485;28;20060;-80
2022/02/02 15:41:35;;;;;;;12.43;3.88;;;4.30;99.90;;;;;;5032495;28;20414;-80
2022/02/02 16:05:11;;;;;;;14.98;2.90;;;5.10;99.90;;;;;;5043705;28;20414;-80
2022/02/02 16:07:37;;;;;;;19.52;3.03;;;5.20;99.90;;;;;;5043655;28;20497;-79
2022/02/02 16:10:06;;;;;;;26.42;8.00;;;5.20;99.90;;;;;;5030707;28;20038;-80
2022/02/02 16:12:44;;;;;;;34.33;10.05;;;5.30;99.90;;;;;;5025131;28;20025;-80
2022/02/02 16:18:19;;;;;;;18.10;3.88;;;5.30;99.90;;;;;;5021763;28;20133;-79
2022/02/02 16:36:52;;;;;;;9.48;2.58;;;5.10;97.40;;;;;;5026392;28;20048;-77
2022/02/02 16:39:24;;;;;;;13.75;2.88;;;5.10;97.30;;;;;;5034358;28;20049;-79
2022/02/02 16:44:35;;;;;;;12.57;4.30;;;5.10;97.00;;;;;;5030565;28;20504;-80
2022/02/02 16:47:00;;;;;;;13.35;2.78;;;5.10;97.00;;;;;;5045254;28;20026;-80
2022/02/02 16:49:26;;;;;;;13.23;3.20;;;5.10;96.30;;;;;;5031187;28;20022;-79
2022/02/02 16:51:52;;;;;;;15.15;2.50;;;5.10;96.30;;;;;;5034109;28;20038;-79
2022/02/02 16:54:27;;;;;;;9.95;3.17;;;5.10;95.30;;;;;;5033589;28;20040;-79
2022/02/02 17:28:46;;;;;;;12.88;2.35;;;5.50;92.30;;;;;;4994109;28;20169;-80
2022/02/02 17:33:05;;;;;;;10.60;2.57;;;5.30;92.10;;;;;;5020821;28;20032;-79
2022/02/02 17:38:50;;;;;;;11.90;2.63;;;5.00;95.20;;;;;;5015528;28;20297;-81
2022/02/02 17:41:01;;;;;;;8.95;2.35;;;4.90;95.20;;;;;;5019344;28;20057;-80
2022/02/02 18:21:22;;;;;;;10.07;3.03;;;4.70;99.90;;;;;;5047886;28;20017;-81
2022/02/02 18:23:55;;;;;;;9.02;3.30;;;4.80;99.90;;;;;;5048390;28;20026;-82
2022/02/02 18:29:09;;;;;;;11.27;3.13;;;4.90;99.90;;;;;;5049056;28;20032;-80
2022/02/02 18:35:03;;;;;;;15.07;2.88;;;4.90;99.90;;;;;;5048611;28;20079;-80
2022/02/02 18:47:55;;;;;;;19.90;4.13;;;5.00;99.90;;;;;;5027896;28;20052;-80
2022/02/02 18:55:49;;;;;;;9.13;3.40;;;5.00;99.90;;;;;;5026704;28;20036;-81
2022/02/02 18:58:12;;;;;;;13.05;3.20;;;5.00;99.90;;;;;;5025229;28;20502;-79
2022/02/02 20:10:40;;;;;;;16.57;6.03;;;3.90;99.90;;;;;;5021914;28;20056;-79
2022/02/02 20:13:05;;;;;;;13.75;5.28;;;4.00;99.90;;;;;;5022963;28;20264;-78
2022/02/02 20:15:37;;;;;;;15.77;5.72;;;4.00;99.90;;;;;;5031750;28;20029;-80
2022/02/02 20:18:04;;;;;;;9.93;5.47;;;4.00;99.90;;;;;;5040451;28;20156;-80
2022/02/02 20:20:33;;;;;;;14.27;5.72;;;4.00;99.90;;;;;;5021503;28;20072;-80
2022/02/02 20:23:02;;;;;;;14.70;5.85;;;4.10;99.90;;;;;;5017910;28;20029;-79
2022/02/02 20:25:28;;;;;;;18.85;6.38;;;4.10;99.90;;;;;;5020876;28;20025;-79
2022/02/02 20:28:03;;;;;;;12.05;5.85;;;4.10;99.90;;;;;;5021872;28;20459;-80
2022/02/02 20:30:29;;;;;;;18.88;6.10;;;4.20;99.90;;;;;;5020568;28;20033;-80
2022/02/02 20:32:55;;;;;;;13.52;4.75;;;4.20;99.90;;;;;;5023384;28;20080;-80
2022/02/02 20:35:21;;;;;;;12.57;5.43;;;4.20;99.90;;;;;;5028400;28;20041;-79
2022/02/02 20:37:47;;;;;;;17.27;5.68;;;4.20;99.90;;;;;;5022196;28;20017;-80
2022/02/02 20:40:13;;;;;;;13.45;6.00;;;4.30;99.90;;;;;;5022532;28;20078;-80
2022/02/02 21:14:40;;;;;;;8.82;4.70;;;4.40;99.90;;;;;;5014586;28;20022;-78
2022/02/02 21:17:08;;;;;;;20.05;6.88;;;4.40;99.90;;;;;;5015194;28;20022;-79
2022/02/02 21:19:45;;;;;;;28.05;6.70;;;4.40;99.90;;;;;;5014653;28;20065;-78
2022/02/02 21:22:11;;;;;;;25.98;8.52;;;4.40;99.90;;;;;;5014988;28;20029;-78
2022/02/02 21:27:29;;;;;;;18.90;7.13;;;4.20;99.90;;;;;;5015625;28;20032;-79
2022/02/02 21:29:54;;;;;;;18.33;6.20;;;4.10;99.90;;;;;;5015597;28;20018;-78
2022/02/02 21:32:23;;;;;;;17.63;6.15;;;4.00;99.90;;;;;;5014566;28;20107;-79
2022/02/02 21:34:51;;;;;;;14.27;5.95;;;3.90;99.90;;;;;;5016146;28;20045;-78
2022/02/02 21:37:19;;;;;;;21.20;6.65;;;3.90;99.90;;;;;;5018554;28;20029;-79
2022/02/02 21:39:54;;;;;;;22.88;6.60;;;3.90;99.90;;;;;;5017903;28;20032;-79
2022/02/02 21:42:20;;;;;;;26.88;8.43;;;4.00;99.90;;;;;;5019764;28;20017;-78
2022/02/02 21:44:46;;;;;;;12.95;6.38;;;4.10;99.90;;;;;;5024521;28;20108;-78
2022/02/02 21:47:12;;;;;;;16.63;7.18;;;4.20;99.90;;;;;;5021982;28;20026;-77
2022/02/02 21:49:39;;;;;;;16.08;6.72;;;4.30;99.90;;;;;;5016955;28;20030;-79
2022/02/02 21:52:08;;;;;;;10.68;5.57;;;4.30;99.90;;;;;;5017138;28;20033;-78
2022/02/02 21:54:36;;;;;;;9.77;5.78;;;4.20;99.90;;;;;;5018934;28;20034;-78
2022/02/02 21:57:02;;;;;;;10.13;7.18;;;4.10;99.90;;;;;;5018154;28;20034;-78
2022/02/02 21:59:28;;;;;;;14.57;7.28;;;4.00;99.90;;;;;;5014415;28;20030;-78
2022/02/02 22:01:54;;;;;;;11.68;6.60;;;4.00;99.90;;;;;;4999902;28;20038;-77
2022/02/02 22:04:20;;;;;;;10.88;5.60;;;3.90;99.90;;;;;;4998885;28;20038;-77
2022/02/02 22:06:46;;;;;;;13.82;5.85;;;3.90;99.90;;;;;;4998933;28;20387;-77
2022/02/02 22:09:11;;;;;;;8.82;4.20;;;3.90;99.90;;;;;;4997667;28;20028;-78
2022/02/02 22:11:37;;;;;;;11.90;5.03;;;3.90;99.90;;;;;;4997689;28;20026;-78
2022/02/02 22:14:09;;;;;;;12.43;5.50;;;3.80;99.90;;;;;;5004187;28;20022;-78
2022/02/02 22:16:37;;;;;;;13.48;5.55;;;3.80;99.90;;;;;;5025120;28;20037;-78
2022/02/02 22:19:03;;;;;;;12.23;4.93;;;3.80;99.90;;;;;;5013184;28;20446;-78
2022/02/02 22:21:30;;;;;;;10.13;4.70;;;3.80;99.90;;;;;;5017841;28;20026;-79
2022/02/02 22:23:55;;;;;;;8.50;4.35;;;3.70;99.90;;;;;;5015744;28;20525;-78
2022/02/02 22:26:22;;;;;;;10.70;4.68;;;3.70;99.90;;;;;;5017936;28;20057;-78
2022/02/02 22:28:48;;;;;;;9.65;3.97;;;3.70;99.90;;;;;;5018163;28;20042;-79
2022/02/02 22:31:14;;;;;;;8.90;4.70;;;3.60;99.90;;;;;;5018015;28;20538;-78
2022/02/02 22:33:40;;;;;;;8.48;4.25;;;3.60;99.90;;;;;;5018051;28;20509;-79
2022/02/02 22:36:07;;;;;;;8.98;4.32;;;3.60;99.90;;;;;;5018692;28;20030;-79
2022/02/02 22:38:32;;;;;;;8.55;4.00;;;3.60;99.90;;;;;;5017316;28;20030;-79
2022/02/02 22:40:59;;;;;;;13.15;4.72;;;3.60;99.90;;;;;;5018374;28;20044;-79
2022/02/02 22:43:31;;;;;;;7.68;4.30;;;3.70;99.90;;;;;;5016337;28;20433;-78
2022/02/02 22:45:57;;;;;;;;;;;3.70;99.90;;;;;;5018404;28;20483;-78
2022/02/02 22:48:24;;;;;;;8.40;4.20;;;3.70;99.90;;;;;;5016110;28;19911;-78
2022/02/02 22:50:51;;;;;;;8.30;4.15;;;3.70;99.90;;;;;;5019564;28;20037;-78
2022/02/02 22:53:21;;;;;;;8.52;4.10;;;3.70;99.90;;;;;;5033956;28;20022;-79
2022/02/02 22:55:47;;;;;;;7.97;3.78;;;3.70;99.90;;;;;;5028945;28;20121;-77
2022/02/02 22:58:13;;;;;;;8.00;4.15;;;3.70;99.90;;;;;;5017309;28;20073;-78
2022/02/02 23:00:40;;;;;;;4.70;3.30;;;3.70;99.90;;;;;;5017728;28;20061;-78
2022/02/02 23:03:14;;;;;;;7.28;4.25;;;3.70;99.90;;;;;;5017499;28;20029;-78
2022/02/02 23:05:43;;;;;;;10.77;4.78;;;3.70;99.90;;;;;;5017168;28;20030;-77
2022/02/02 23:08:12;;;;;;;12.75;6.07;;;3.70;99.90;;;;;;5017199;28;20072;-80
2022/02/02 23:10:39;;;;;;;7.35;4.47;;;3.80;99.90;;;;;;5016847;28;20022;-79
2022/02/02 23:13:06;;;;;;;8.55;4.55;;;3.80;99.90;;;;;;5017162;28;20049;-78
2022/02/02 23:18:18;;;;;;;10.70;4.53;;;3.80;99.90;;;;;;5033668;28;20033;-79
2022/02/02 23:20:48;;;;;;;9.60;4.38;;;3.80;99.90;;;;;;5037894;28;20026;-79
2022/02/02 23:23:19;;;;;;;11.38;4.65;;;3.80;99.90;;;;;;5036503;28;20029;-78
2022/02/02 23:25:47;;;;;;;13.55;5.05;;;3.80;99.90;;;;;;5036616;28;20088;-78
2022/02/02 23:28:18;;;;;;;8.20;4.78;;;3.80;99.90;;;;;;5035445;28;20025;-79
2022/02/02 23:30:44;;;;;;;10.15;5.05;;;3.80;99.90;;;;;;5037505;28;20486;-80
2022/02/02 23:33:10;;;;;;;8.45;5.03;;;3.80;99.90;;;;;;5037392;28;20026;-79
2022/02/02 23:35:38;;;;;;;8.25;4.85;;;3.80;99.90;;;;;;5007032;28;20105;-78
2022/02/02 23:38:04;;;;;;;11.35;4.50;;;3.90;99.90;;;;;;5013949;28;20609;-78
2022/02/02 23:40:39;;;;;;;6.93;4.07;;;3.90;99.90;;;;;;5016548;28;20069;-78
2022/02/02 23:43:05;;;;;;;4.28;3.30;;;4.00;99.90;;;;;;5015915;28;20029;-78
2022/02/02 23:45:31;;;;;;;6.68;3.55;;;4.10;99.90;;;;;;5023993;28;20034;-78
2022/02/02 23:47:59;;;;;;;7.88;4.07;;;4.20;99.90;;;;;;5032046;28;20462;-78
2022/02/02 23:50:26;;;;;;;8.52;4.32;;;4.30;99.90;;;;;;5044617;28;20033;-79
2022/02/02 23:52:55;;;;;;;10.30;4.57;;;4.30;99.90;;;;;;5043504;28;20048;-78
2022/02/02 23:55:36;;;;;;;7.10;3.53;;;4.30;99.90;;;;;;5046670;28;20031;-78
2022/02/02 23:58:11;;;;;;;5.95;3.53;;;4.30;99.90;;;;;;5047892;28;20026;-77
